Time;durP1;ratioP1;P1;durP2;ratioP2;P2;SDS_P1;SDS_P2;PMS_P1;PMS_P2;Temp;Humidity;BMP_temperature;BMP_pressure;BME280_temperature;BME280_humidity;BME280_pressure;Samples;Min_cycle;Max_cycle;Signal;HPM_P1;HPM_P2
2023/12/01 00:00:14;;;;;;;102.40;15.77;;;;;;;2.86;100.00;96335.81;5006084;28;20460;-53
2023/12/01 00:02:40;;;;;;;150.35;17.92;;;;;;;2.93;100.00;96328.97;5005109;28;20021;-57
2023/12/01 00:05:06;;;;;;;101.68;16.25;;;;;;;3.00;100.00;96342.66;5005116;28;20189;-54
2023/12/01 00:07:32;;;;;;;137.10;17.75;;;;;;;3.03;100.00;96357.22;5007663;28;20112;-56
2023/12/01 00:09:57;;;;;;;103.55;15.57;;;;;;;2.99;100.00;96362.38;5005239;28;20040;-55
2023/12/01 00:12:22;;;;;;;124.50;15.82;;;;;;;2.76;100.00;96359.78;5006433;28;20529;-54
2023/12/01 00:14:48;;;;;;;115.22;16.23;;;;;;;2.83;100.00;96365.78;5007456;28;20060;-54
2023/12/01 00:17:13;;;;;;;136.13;16.13;;;;;;;2.79;100.00;96377.75;5007107;28;20048;-55
2023/12/01 00:19:40;;;;;;;151.80;18.17;;;;;;;2.77;100.00;96378.59;5008086;28;20131;-55
2023/12/01 00:22:06;;;;;;;88.63;14.88;;;;;;;2.71;100.00;96385.44;5006889;28;20133;-54
2023/12/01 00:24:32;;;;;;;173.25;18.75;;;;;;;2.85;100.00;96372.63;5005742;28;20036;-54
2023/12/01 00:26:57;;;;;;;76.32;14.10;;;;;;;2.74;100.00;96376.88;5007910;28;20038;-55
2023/12/01 00:29:23;;;;;;;109.28;14.98;;;;;;;2.47;100.00;96376.84;5008084;28;20532;-54
2023/12/01 00:31:48;;;;;;;89.72;13.27;;;;;;;2.52;100.00;96360.59;5009070;28;20041;-54
2023/12/01 00:34:13;;;;;;;98.03;14.93;;;;;;;2.60;100.00;96351.22;5008111;28;20030;-55
2023/12/01 00:36:39;;;;;;;147.77;15.00;;;;;;;2.51;100.00;96354.59;5008119;28;20497;-54
2023/12/01 00:39:06;;;;;;;105.13;13.27;;;;;;;2.46;100.00;96359.69;5005185;28;20022;-55
2023/12/01 00:41:32;;;;;;;94.60;12.15;;;;;;;2.45;100.00;96339.19;5006937;28;20034;-54
2023/12/01 00:43:57;;;;;;;121.50;15.48;;;;;;;2.54;100.00;96338.34;5008401;28;20028;-55
2023/12/01 00:46:23;;;;;;;95.82;13.95;;;;;;;2.77;100.00;96338.38;5009316;28;20038;-55
2023/12/01 00:48:48;;;;;;;89.32;16.27;;;;;;;2.69;100.00;96327.25;5005742;28;20720;-54
2023/12/01 00:51:18;;;;;;;126.82;15.18;;;;;;;2.78;100.00;96331.53;5006640;28;20560;-54
2023/12/01 00:53:43;;;;;;;145.60;18.27;;;;;;;2.56;100.00;96346.91;5006520;28;20026;-54
2023/12/01 00:56:13;;;;;;;108.70;16.48;;;;;;;2.57;100.00;96364.84;5008908;28;20037;-54
2023/12/01 00:58:39;;;;;;;158.48;18.55;;;;;;;2.65;100.00;96349.50;5005610;28;20474;-55
2023/12/01 01:01:06;;;;;;;96.13;16.00;;;;;;;2.67;100.00;96352.91;5005491;28;20501;-54
2023/12/01 01:03:32;;;;;;;127.50;16.02;;;;;;;2.66;100.00;96355.47;5005505;28;20094;-54
2023/12/01 01:05:58;;;;;;;96.15;14.63;;;;;;;2.55;100.00;96366.59;5008051;28;20033;-54
2023/12/01 01:08:23;;;;;;;84.38;14.15;;;;;;;2.46;100.00;96339.19;5006466;28;20494;-54
2023/12/01 01:10:48;;;;;;;110.10;14.70;;;;;;;2.46;100.00;96323.78;5004272;28;20330;-54
2023/12/01 01:13:14;;;;;;;108.88;16.13;;;;;;;2.59;100.00;96336.63;5008154;28;20663;-54
2023/12/01 01:15:40;;;;;;;138.88;18.20;;;;;;;2.66;100.00;96330.66;5006006;28;20050;-54
2023/12/01 01:18:06;;;;;;;108.47;15.55;;;;;;;2.74;100.00;96330.66;5003905;28;20022;-54
2023/12/01 01:20:32;;;;;;;102.13;14.63;;;;;;;2.65;100.00;96333.22;5007328;28;20038;-54
2023/12/01 01:22:57;;;;;;;94.60;14.55;;;;;;;2.66;100.00;96333.22;5006200;28;20038;-54
2023/12/01 01:25:23;;;;;;;134.80;16.42;;;;;;;2.66;100.00;96346.06;5007098;28;20382;-54
2023/12/01 01:27:49;;;;;;;93.00;14.13;;;;;;;2.69;100.00;96340.94;5003820;28;20041;-54
2023/12/01 01:30:15;;;;;;;105.40;14.73;;;;;;;2.64;100.00;96347.78;5005638;28;20030;-54
2023/12/01 01:32:40;;;;;;;147.80;17.35;;;;;;;2.65;100.00;96341.78;5007462;28;20026;-54
2023/12/01 01:35:06;;;;;;;77.78;15.05;;;;;;;2.59;100.00;96329.81;5007490;28;20266;-55
2023/12/01 01:37:31;;;;;;;94.22;15.95;;;;;;;2.60;100.00;96346.06;5005761;28;20397;-54
2023/12/01 01:39:57;;;;;;;133.65;16.98;;;;;;;2.56;100.00;96336.66;5006875;28;20095;-54
2023/12/01 01:42:22;;;;;;;90.10;15.05;;;;;;;2.55;100.00;96322.94;5005465;28;20112;-54
2023/12/01 01:44:48;;;;;;;109.03;13.73;;;;;;;2.51;100.00;96341.75;5006031;28;20049;-55
2023/12/01 01:47:13;;;;;;;129.93;16.92;;;;;;;2.53;100.00;96352.88;5004778;28;20040;-55
2023/12/01 01:49:39;;;;;;;133.32;15.75;;;;;;;2.45;100.00;96352.88;5004475;28;20091;-54
2023/12/01 01:52:05;;;;;;;100.80;14.90;;;;;;;2.52;100.00;96363.16;5005819;28;20046;-55
2023/12/01 01:54:31;;;;;;;102.68;15.27;;;;;;;2.69;100.00;96355.47;5013319;28;20083;-55
2023/12/01 01:56:57;;;;;;;85.15;13.13;;;;;;;2.58;100.00;96358.03;5005642;28;20124;-54
2023/12/01 01:59:23;;;;;;;101.15;13.63;;;;;;;2.35;100.00;96351.13;5005451;28;20386;-55
2023/12/01 02:01:50;;;;;;;109.15;15.43;;;;;;;2.41;100.00;96356.28;5003074;28;20040;-54
2023/12/01 02:04:16;;;;;;;101.47;16.17;;;;;;;2.53;100.00;96341.78;5005501;28;20129;-55
2023/12/01 02:06:45;;;;;;;160.98;19.02;;;;;;;2.59;100.00;96344.34;5003854;28;20038;-55
2023/12/01 02:09:11;;;;;;;123.45;16.88;;;;;;;2.36;100.00;96345.16;5006712;28;20036;-55
2023/12/01 02:11:37;;;;;;;133.30;17.35;;;;;;;2.43;100.00;96362.28;5004916;28;20034;-54
2023/12/01 02:14:03;;;;;;;116.13;16.00;;;;;;;2.42;100.00;96357.16;5006575;28;20076;-54
2023/12/01 02:16:30;;;;;;;79.97;14.52;;;;;;;2.54;100.00;96335.78;5005670;28;20042;-54
2023/12/01 02:18:56;;;;;;;90.88;14.93;;;;;;;2.53;100.00;96323.81;5004342;28;20531;-54
2023/12/01 02:21:25;;;;;;;124.28;16.90;;;;;;;2.52;100.00;96324.66;5006010;28;20564;-55
2023/12/01 02:23:54;;;;;;;101.68;12.02;;;;;;;2.30;100.00;96342.59;5005737;28;20422;-54
2023/12/01 02:26:20;;;;;;;89.53;15.10;;;;;;;2.43;100.00;96344.31;5004754;28;20236;-55
2023/12/01 02:28:46;;;;;;;142.63;18.17;;;;;;;2.36;100.00;96345.16;5003818;28;20083;-54
2023/12/01 02:31:12;;;;;;;87.90;14.18;;;;;;;2.40;100.00;96348.56;5004742;28;20393;-55
2023/12/01 02:33:38;;;;;;;151.27;18.50;;;;;;;2.46;100.00;96349.44;5004753;28;20048;-55
2023/12/01 02:36:06;;;;;;;97.63;19.13;;;;;;;2.37;100.00;96344.28;5006995;28;20065;-55
2023/12/01 02:38:32;;;;;;;95.85;15.50;;;;;;;2.42;100.00;96344.31;5006686;28;20018;-55
2023/12/01 02:40:58;;;;;;;112.40;16.00;;;;;;;2.44;100.00;96347.72;5002167;28;20065;-56
2023/12/01 02:43:23;;;;;;;86.18;14.25;;;;;;;2.30;100.00;96352.84;5004865;28;20224;-56
2023/12/01 02:45:49;;;;;;;101.45;14.52;;;;;;;2.39;100.00;96352.00;5004510;28;20042;-55
2023/12/01 02:48:16;;;;;;;113.32;15.95;;;;;;;2.26;100.00;96356.25;5006271;28;20033;-55
2023/12/01 02:50:41;;;;;;;122.85;16.80;;;;;;;2.45;100.00;96358.00;5003073;28;20067;-57
2023/12/01 02:53:07;;;;;;;95.95;14.70;;;;;;;2.44;100.00;96361.44;5004680;28;20064;-55
2023/12/01 02:55:32;;;;;;;106.68;15.50;;;;;;;2.50;100.00;96369.97;5005669;28;20052;-56
2023/12/01 02:57:58;;;;;;;88.80;14.32;;;;;;;2.47;100.00;96366.56;5006439;28;20207;-56
2023/12/01 03:00:24;;;;;;;99.85;14.95;;;;;;;2.41;100.00;96369.09;5004316;28;20033;-55
2023/12/01 03:02:50;;;;;;;136.82;16.98;;;;;;;2.61;100.00;96365.75;5005489;28;20516;-55
2023/12/01 03:05:16;;;;;;;95.13;14.43;;;;;;;2.47;100.00;96369.13;5005135;28;20582;-55
2023/12/01 03:07:42;;;;;;;147.88;17.20;;;;;;;2.46;100.00;96359.69;5003648;28;20042;-55
2023/12/01 03:10:08;;;;;;;90.05;14.63;;;;;;;2.48;100.00;96359.72;5005371;28;20238;-56
2023/12/01 03:12:37;;;;;;;88.70;16.13;;;;;;;2.43;100.00;96353.72;5005832;28;20049;-55
2023/12/01 03:15:04;;;;;;;108.75;15.18;;;;;;;2.48;100.00;96354.59;5011202;28;20025;-56
2023/12/01 03:17:30;;;;;;;93.22;15.52;;;;;;;2.52;100.00;96358.88;5009330;28;20068;-55
2023/12/01 03:19:55;;;;;;;97.80;15.50;;;;;;;2.46;100.00;96364.84;5008203;28;20519;-56
2023/12/01 03:22:21;;;;;;;111.50;9.82;;;;;;;2.31;100.00;96354.53;5006015;28;20147;-55
2023/12/01 03:24:47;;;;;;;132.68;17.83;;;;;;;2.46;100.00;96353.72;5007368;28;20049;-55
2023/12/01 03:27:18;;;;;;;82.97;12.88;;;;;;;2.34;100.00;96364.81;5006858;28;20291;-55
2023/12/01 03:29:43;;;;;;;125.85;17.73;;;;;;;2.40;100.00;96364.84;5007653;28;20025;-56
2023/12/01 03:32:09;;;;;;;103.80;15.75;;;;;;;2.40;100.00;96363.97;5007388;28;20056;-55
2023/12/01 03:34:34;;;;;;;94.10;13.75;;;;;;;2.39;100.00;96363.13;5008543;28;20037;-56
2023/12/01 03:37:00;;;;;;;92.90;14.60;;;;;;;2.41;100.00;96368.28;5006311;28;20225;-55
2023/12/01 03:39:26;;;;;;;87.55;13.55;;;;;;;2.37;100.00;96369.94;5008070;28;20040;-55
2023/12/01 03:41:51;;;;;;;144.43;17.05;;;;;;;2.35;100.00;96379.38;5006255;28;20045;-55
2023/12/01 03:44:17;;;;;;;99.00;14.65;;;;;;;2.44;100.00;96381.94;5008385;28;20034;-55
2023/12/01 03:46:43;;;;;;;120.88;16.15;;;;;;;2.25;100.00;96380.16;5007585;28;20042;-55
2023/12/01 03:49:09;;;;;;;115.32;15.65;;;;;;;2.25;100.00;96380.16;5009389;28;20605;-55
2023/12/01 03:51:35;;;;;;;90.20;14.38;;;;;;;2.42;100.00;96370.81;5007037;28;20041;-53
2023/12/01 03:54:00;;;;;;;94.53;14.55;;;;;;;2.17;100.00;96373.31;5009755;28;20025;-54
2023/12/01 03:56:26;;;;;;;107.93;15.27;;;;;;;2.29;100.00;96364.81;5009124;28;20037;-54
2023/12/01 03:58:54;;;;;;;132.90;17.60;;;;;;;2.45;100.00;96345.16;5007003;28;20065;-54
2023/12/01 04:01:23;;;;;;;91.97;15.65;;;;;;;2.39;100.00;96336.59;5006942;28;20041;-54
2023/12/01 04:03:49;;;;;;;137.00;16.75;;;;;;;2.44;100.00;96333.19;5007826;28;20212;-54
2023/12/01 04:06:15;;;;;;;101.97;15.10;;;;;;;2.41;100.00;96343.44;5008715;28;20115;-54
2023/12/01 04:08:40;;;;;;;101.55;13.38;;;;;;;2.20;100.00;96351.94;5007723;28;20453;-54
2023/12/01 04:11:06;;;;;;;83.70;15.63;;;;;;;2.34;100.00;96362.25;5007318;28;20288;-54
2023/12/01 04:13:32;;;;;;;93.25;14.35;;;;;;;2.37;100.00;96362.25;5008192;28;20018;-54
2023/12/01 04:15:58;;;;;;;97.93;15.25;;;;;;;2.34;100.00;96354.56;5008291;28;20473;-54
2023/12/01 04:18:23;;;;;;;78.82;14.80;;;;;;;2.24;100.00;96357.94;5007429;28;20185;-54
2023/12/01 04:20:49;;;;;;;99.30;15.35;;;;;;;2.32;100.00;96361.38;5007960;28;20501;-54
2023/12/01 04:23:15;;;;;;;137.00;17.42;;;;;;;2.28;100.00;96349.41;5006691;28;20037;-54
2023/12/01 04:25:46;;;;;;;102.97;16.13;;;;;;;2.06;100.00;96357.03;5005695;28;20041;-55
2023/12/01 04:28:13;;;;;;;104.00;14.40;;;;;;;2.14;100.00;96352.78;5008317;28;20021;-54
2023/12/01 04:30:39;;;;;;;118.75;16.67;;;;;;;2.08;100.00;96345.91;5007530;28;20037;-54
2023/12/01 04:33:04;;;;;;;90.00;14.27;;;;;;;2.15;100.00;96349.34;5009212;28;20034;-55
2023/12/01 04:35:32;;;;;;;96.43;15.30;;;;;;;2.20;100.00;96352.78;5007238;28;20452;-54
2023/12/01 04:37:59;;;;;;;149.95;19.65;;;;;;;2.24;100.00;96348.53;5006570;28;20206;-54
2023/12/01 04:40:27;;;;;;;90.35;15.23;;;;;;;1.96;100.00;96353.56;5008649;28;20500;-54
2023/12/01 04:42:52;;;;;;;135.82;17.67;;;;;;;2.19;100.00;96358.78;5007556;28;20532;-54
2023/12/01 04:45:20;;;;;;;107.05;18.20;;;;;;;2.24;100.00;96371.63;5006408;28;20029;-53
2023/12/01 04:47:52;;;;;;;130.23;17.70;;;;;;;2.05;100.00;96360.44;5004554;28;20470;-54
2023/12/01 04:50:19;;;;;;;118.97;14.82;;;;;;;1.89;100.00;96367.22;5006695;28;20055;-53
2023/12/01 04:52:57;;;;;;;120.35;18.40;;;;;;;1.94;100.00;96363.81;5007524;28;20026;-54
2023/12/01 04:55:24;;;;;;;141.18;17.15;;;;;;;2.20;100.00;96362.22;5005513;28;20414;-53
2023/12/01 04:57:50;;;;;;;133.40;18.17;;;;;;;2.16;100.00;96366.44;5006541;28;20084;-53
2023/12/01 05:00:25;;;;;;;100.93;16.13;;;;;;;2.12;100.00;96362.19;5007124;28;20029;-54
2023/12/01 05:02:58;;;;;;;146.48;20.20;;;;;;;2.13;100.00;96360.47;5007060;28;20472;-56
2023/12/01 05:05:25;;;;;;;91.35;15.38;;;;;;;2.25;100.00;96359.66;5007063;28;20076;-55
2023/12/01 05:07:52;;;;;;;138.82;17.98;;;;;;;2.27;100.00;96371.63;5005042;28;20022;-55
2023/12/01 05:10:22;;;;;;;100.22;14.55;;;;;;;2.17;100.00;96378.44;5008719;28;20025;-55
2023/12/01 05:12:49;;;;;;;121.47;17.20;;;;;;;2.14;100.00;96378.44;5005787;28;20026;-55
2023/12/01 05:15:16;;;;;;;105.57;14.65;;;;;;;2.08;100.00;96379.25;5006680;28;20025;-55
2023/12/01 05:17:53;;;;;;;107.93;16.73;;;;;;;2.16;100.00;96375.88;5006780;28;20495;-57
2023/12/01 05:20:20;;;;;;;120.82;16.52;;;;;;;2.03;100.00;96377.50;5006106;28;20837;-55
2023/12/01 05:22:48;;;;;;;113.72;16.85;;;;;;;2.15;100.00;96380.13;5005691;28;20021;-55
2023/12/01 05:25:15;;;;;;;116.78;17.10;;;;;;;2.19;100.00;96388.72;5005245;28;20054;-55
2023/12/01 05:27:47;;;;;;;103.57;15.77;;;;;;;2.15;100.00;96382.69;5007408;28;20041;-55
2023/12/01 05:30:14;;;;;;;109.68;16.00;;;;;;;2.11;100.00;96392.97;5008345;28;20022;-55
2023/12/01 05:32:42;;;;;;;130.43;17.38;;;;;;;2.05;100.00;96384.38;5008456;28;20038;-55
2023/12/01 05:35:10;;;;;;;114.70;16.50;;;;;;;1.98;100.00;96394.59;5005214;28;20026;-56
2023/12/01 05:37:47;;;;;;;124.53;17.83;;;;;;;1.98;100.00;96390.34;5006450;28;20026;-55
2023/12/01 05:40:17;;;;;;;109.60;15.70;;;;;;;1.84;100.00;96395.38;5005511;28;20034;-55
2023/12/01 05:42:44;;;;;;;94.78;12.90;;;;;;;1.85;100.00;96386.00;5004750;28;20026;-56
2023/12/01 05:45:13;;;;;;;105.28;15.98;;;;;;;1.89;100.00;96378.31;5005339;28;20705;-55
2023/12/01 05:47:46;;;;;;;102.20;16.08;;;;;;;1.77;100.00;96388.50;5005563;28;20026;-55
2023/12/01 05:50:15;;;;;;;;;;;;;;;1.90;100.00;96390.28;5006082;28;20044;-55
2023/12/01 05:52:45;;;;;;;94.80;14.55;;;;;;;1.76;100.00;96385.09;5004846;28;19930;-56
2023/12/01 05:55:15;;;;;;;113.97;15.95;;;;;;;1.85;100.00;96384.28;5005670;28;20045;-55
2023/12/01 05:57:51;;;;;;;105.90;16.25;;;;;;;1.76;100.00;96381.66;5007437;28;20029;-55
2023/12/01 06:00:20;;;;;;;124.53;16.35;;;;;;;1.71;100.00;96383.34;5003155;28;20524;-55
2023/12/01 06:02:47;;;;;;;135.40;17.17;;;;;;;1.78;100.00;96396.19;5006435;28;20263;-55
2023/12/01 06:05:14;;;;;;;94.93;15.52;;;;;;;1.76;100.00;96409.84;5006272;28;20025;-55
2023/12/01 06:07:44;;;;;;;124.82;16.40;;;;;;;1.76;100.00;96410.72;5005993;28;20029;-56
2023/12/01 06:10:12;;;;;;;119.10;15.50;;;;;;;1.74;100.00;96404.72;5006602;28;20026;-55
2023/12/01 06:12:40;;;;;;;102.10;16.73;;;;;;;1.66;100.00;96384.19;5007787;28;20025;-55
2023/12/01 06:15:11;;;;;;;115.57;18.10;;;;;;;1.79;100.00;96392.78;5002557;28;20509;-53
2023/12/01 06:17:37;;;;;;;104.43;17.63;;;;;;;1.81;100.00;96403.91;5005884;28;20068;-56
2023/12/01 06:20:04;;;;;;;187.57;21.83;;;;;;;1.89;100.00;96421.06;5004291;28;20657;-56
2023/12/01 06:22:29;;;;;;;101.18;16.73;;;;;;;1.79;100.00;96428.66;5005455;28;20053;-55
2023/12/01 06:24:55;;;;;;;119.65;18.20;;;;;;;1.73;100.00;96426.09;5007694;28;20449;-56
2023/12/01 06:27:22;;;;;;;147.73;18.92;;;;;;;1.70;100.00;96420.94;5007722;28;20088;-55
2023/12/01 06:29:48;;;;;;;139.10;18.13;;;;;;;1.74;100.00;96411.56;5005089;28;20505;-55
2023/12/01 06:32:15;;;;;;;120.63;16.85;;;;;;;1.77;100.00;96415.00;5004538;28;20049;-55
2023/12/01 06:34:41;;;;;;;144.82;19.38;;;;;;;1.77;100.00;96416.69;5006290;28;20044;-55
2023/12/01 06:37:06;;;;;;;114.43;16.15;;;;;;;1.68;100.00;96420.91;5006006;28;20049;-55
2023/12/01 06:39:32;;;;;;;113.05;16.73;;;;;;;1.51;100.00;96420.81;5007945;28;20022;-55
2023/12/01 06:41:57;;;;;;;172.98;21.33;;;;;;;1.77;100.00;96426.94;5005181;28;20037;-55
2023/12/01 06:44:22;;;;;;;111.95;18.77;;;;;;;1.71;100.00;96434.59;5005018;28;20022;-55
2023/12/01 06:46:48;;;;;;;128.45;18.98;;;;;;;1.71;100.00;96430.34;5003842;28;20462;-55
2023/12/01 06:49:14;;;;;;;147.73;19.08;;;;;;;1.71;100.00;96434.59;5006137;28;20037;-55
2023/12/01 06:51:39;;;;;;;123.63;18.05;;;;;;;1.66;100.00;96435.44;5005855;28;20431;-56
2023/12/01 06:54:05;;;;;;;180.07;21.55;;;;;;;1.51;100.00;96428.50;5003057;28;20029;-55
2023/12/01 06:56:30;;;;;;;117.47;19.38;;;;;;;1.62;100.00;96436.25;5005876;28;20034;-55
2023/12/01 06:58:56;;;;;;;143.60;19.25;;;;;;;1.72;100.00;96457.69;5003902;28;20232;-55
2023/12/01 07:01:21;;;;;;;120.95;18.52;;;;;;;1.50;100.00;96466.91;5004539;28;20068;-55
2023/12/01 07:03:49;;;;;;;150.77;19.95;;;;;;;1.57;100.00;96440.50;5004399;28;20038;-56
2023/12/01 07:06:16;;;;;;;138.40;17.98;;;;;;;1.51;100.00;96441.31;5004710;28;20497;-55
2023/12/01 07:08:41;;;;;;;131.50;20.05;;;;;;;1.71;100.00;96442.31;5005541;28;20021;-56
2023/12/01 07:11:07;;;;;;;130.30;18.98;;;;;;;1.88;100.00;96453.53;5002791;28;20041;-55
2023/12/01 07:13:33;;;;;;;118.47;19.45;;;;;;;1.81;100.00;96451.75;5004964;28;20022;-55
2023/12/01 07:15:59;;;;;;;145.82;19.83;;;;;;;1.85;100.00;96457.78;5001644;28;20267;-55
2023/12/01 07:18:24;;;;;;;129.75;18.30;;;;;;;1.61;100.00;96465.31;5005455;28;20029;-55
2023/12/01 07:20:50;;;;;;;112.65;17.75;;;;;;;1.95;100.00;96474.94;5004198;28;20048;-55
2023/12/01 07:23:19;;;;;;;158.85;19.77;;;;;;;1.89;100.00;96467.22;5003119;28;20026;-55
2023/12/01 07:25:48;;;;;;;176.77;21.48;;;;;;;1.98;100.00;96468.97;5004045;28;20040;-55
2023/12/01 07:28:14;;;;;;;155.50;19.98;;;;;;;1.76;100.00;96476.50;5003793;28;20551;-56
2023/12/01 07:30:41;;;;;;;153.18;19.75;;;;;;;1.80;100.00;96485.94;5004478;28;20125;-55
2023/12/01 07:33:07;;;;;;;188.88;23.05;;;;;;;1.76;100.00;96484.19;5004178;28;20032;-55
2023/12/01 07:35:34;;;;;;;123.30;18.20;;;;;;;1.68;100.00;96490.13;5004436;28;20087;-55
2023/12/01 07:38:00;;;;;;;165.15;21.33;;;;;;;1.77;100.00;96491.03;5005432;28;20128;-56
2023/12/01 07:40:27;;;;;;;118.30;19.00;;;;;;;1.87;100.00;96477.44;5004265;28;20421;-55
2023/12/01 07:42:56;;;;;;;171.00;21.40;;;;;;;1.93;100.00;96469.78;5005399;28;20026;-55
2023/12/01 07:45:22;;;;;;;140.15;19.73;;;;;;;1.98;100.00;96474.97;5003656;28;20033;-55
2023/12/01 07:47:49;;;;;;;131.57;19.35;;;;;;;2.02;100.00;96486.06;5006556;28;20029;-55
2023/12/01 07:50:15;;;;;;;151.75;19.95;;;;;;;2.18;100.00;96497.28;5001777;28;20041;-55
2023/12/01 07:52:42;;;;;;;136.75;19.67;;;;;;;2.07;100.00;96489.53;5003569;28;20030;-55
2023/12/01 07:55:07;;;;;;;198.52;23.40;;;;;;;2.17;100.00;96496.44;5004480;28;20619;-55
2023/12/01 07:57:32;;;;;;;138.75;20.08;;;;;;;2.28;100.00;96495.63;5005442;28;20029;-55
2023/12/01 07:59:58;;;;;;;186.18;22.60;;;;;;;2.16;100.00;96492.13;5006290;28;20064;-56
2023/12/01 08:02:23;;;;;;;105.05;17.33;;;;;;;2.02;100.00;96484.38;5004631;28;20034;-55
2023/12/01 08:04:49;;;;;;;60.80;5.10;;;;;;;1.92;100.00;96480.03;5014053;28;20063;-56
2023/12/01 08:07:14;;;;;;;57.35;3.80;;;;;;;2.20;100.00;96486.19;5009514;28;20033;-57
2023/12/01 08:09:39;;;;;;;58.17;5.72;;;;;;;2.14;100.00;96487.84;5011271;28;20077;-55
2023/12/01 08:12:05;;;;;;;104.55;6.85;;;;;;;2.10;100.00;96489.56;5012743;28;20042;-55
2023/12/01 08:14:30;;;;;;;30.60;2.38;;;;;;;2.02;100.00;96476.69;5012710;28;20025;-55
2023/12/01 08:16:56;;;;;;;107.72;7.13;;;;;;;2.29;100.00;96485.38;5010008;28;20046;-56
2023/12/01 08:19:21;;;;;;;59.45;4.30;;;;;;;2.41;100.00;96473.47;5012810;28;20512;-55
2023/12/01 08:21:47;;;;;;;48.50;3.85;;;;;;;2.38;100.00;96484.59;5012936;28;20038;-54
2023/12/01 08:24:12;;;;;;;80.25;4.53;;;;;;;2.36;100.00;96490.53;5010002;28;20030;-55
2023/12/01 08:26:38;;;;;;;40.20;2.67;;;;;;;2.59;100.00;96493.22;5011037;28;20034;-55
2023/12/01 08:29:04;;;;;;;68.65;4.35;;;;;;;2.53;100.00;96495.75;5009888;28;20397;-55
2023/12/01 08:31:32;;;;;;;73.80;4.63;;;;;;;2.60;100.00;96498.34;5009664;28;20041;-56
2023/12/01 08:33:58;;;;;;;68.53;4.97;;;;;;;2.50;100.00;96504.31;5012437;28;20052;-55
2023/12/01 08:36:24;;;;;;;40.33;2.97;;;;;;;2.42;100.00;96516.25;5011819;28;20060;-55
2023/12/01 08:38:50;;;;;;;77.95;5.53;;;;;;;2.46;100.00;96515.41;5013287;28;20501;-55
2023/12/01 08:41:16;;;;;;;54.65;3.78;;;;;;;2.59;100.00;96518.88;5011950;28;20044;-55
2023/12/01 08:43:41;;;;;;;42.10;3.28;;;;;;;2.37;100.00;96516.19;5009916;28;20449;-55
2023/12/01 08:46:07;;;;;;;88.65;5.28;;;;;;;2.35;100.00;96515.34;5010556;28;20469;-56
2023/12/01 08:48:32;;;;;;;45.38;3.10;;;;;;;2.50;100.00;96517.13;5013986;28;20060;-55
2023/12/01 08:50:58;;;;;;;86.80;5.72;;;;;;;2.53;100.00;96509.44;5009752;28;20040;-55
2023/12/01 08:53:24;;;;;;;81.53;5.63;;;;;;;2.73;100.00;96496.72;5012201;28;20428;-53
2023/12/01 08:55:50;;;;;;;32.08;2.58;;;;;;;2.76;100.00;96484.72;5011250;28;20037;-54
2023/12/01 08:58:17;;;;;;;52.15;3.65;;;;;;;2.70;100.00;96494.13;5011989;28;20026;-54
2023/12/01 09:00:43;;;;;;;69.80;5.22;;;;;;;2.93;100.00;96493.31;5009941;28;20049;-54
2023/12/01 09:03:08;;;;;;;58.63;4.28;;;;;;;2.85;100.00;96489.88;5010250;28;20025;-54
2023/12/01 09:05:34;;;;;;;56.25;3.78;;;;;;;2.69;100.00;96505.25;5010167;28;20042;-55
2023/12/01 09:08:01;;;;;;;68.80;5.35;;;;;;;2.93;100.00;96501.03;5008852;28;20698;-54
2023/12/01 09:10:28;;;;;;;40.53;2.97;;;;;;;3.32;100.00;96510.53;5009685;28;20057;-54
2023/12/01 09:12:53;;;;;;;75.80;5.25;;;;;;;3.07;100.00;96507.91;5011669;28;20026;-53
2023/12/01 09:15:19;;;;;;;57.75;3.58;;;;;;;3.06;100.00;96519.03;5009695;28;20534;-54
2023/12/01 09:17:44;;;;;;;43.17;4.28;;;;;;;3.33;100.00;96528.53;5010504;28;20044;-55
2023/12/01 09:20:10;;;;;;;129.77;8.45;;;;;;;3.10;100.00;96529.34;5009194;28;20033;-54
2023/12/01 09:22:36;;;;;;;43.40;3.13;;;;;;;3.29;100.00;96531.09;5009564;28;20571;-55
2023/12/01 09:25:02;;;;;;;44.00;3.45;;;;;;;3.39;100.00;96538.81;5010408;28;20025;-55
2023/12/01 09:27:28;;;;;;;69.28;4.55;;;;;;;3.36;100.00;96533.69;5011208;28;20488;-54
2023/12/01 09:29:53;;;;;;;50.38;4.22;;;;;;;3.03;100.00;96529.31;5011337;28;20037;-53
2023/12/01 09:32:19;;;;;;;46.90;4.63;;;;;;;3.22;100.00;96523.38;5009147;28;20084;-55
2023/12/01 09:34:45;;;;;;;59.55;4.53;;;;;;;3.61;100.00;96525.16;5009854;28;20072;-55
2023/12/01 09:37:11;;;;;;;93.63;6.65;;;;;;;3.48;100.00;96537.97;5008685;28;20034;-54
2023/12/01 09:39:38;;;;;;;52.63;3.83;;;;;;;3.49;100.00;96531.13;5011666;28;20022;-55
2023/12/01 09:42:09;;;;;;;81.03;5.13;;;;;;;3.27;100.00;96528.53;5011119;28;20033;-54
2023/12/01 09:44:35;;;;;;;54.38;4.47;;;;;;;3.58;100.00;96518.28;5009613;28;20516;-55
2023/12/01 09:47:03;;;;;;;86.70;5.65;;;;;;;3.62;100.00;96503.72;5008264;28;20505;-55
2023/12/01 09:49:38;;;;;;;51.88;4.25;;;;;;;3.73;100.00;96499.44;5010117;28;20112;-54
2023/12/01 09:52:04;;;;;;;104.97;7.15;;;;;;;3.81;100.00;96512.28;5008279;28;20099;-54
2023/12/01 09:54:30;;;;;;;43.70;3.33;;;;;;;3.89;100.00;96509.69;5013918;28;20105;-54
2023/12/01 09:56:57;;;;;;;48.85;3.03;;;;;;;3.91;100.00;96510.56;5010149;28;20148;-54
2023/12/01 09:59:23;;;;;;;99.00;5.95;;;;;;;3.98;100.00;96506.28;5008569;28;20052;-54
2023/12/01 10:01:50;;;;;;;48.80;4.63;;;;;;;2.92;100.00;96504.47;5008710;28;20417;-54
2023/12/01 10:04:16;;;;;;;99.05;6.50;;;;;;;2.12;100.00;96505.81;5011587;28;20022;-54
2023/12/01 10:06:41;;;;;;;70.68;5.20;;;;;;;2.08;100.00;96511.78;5010199;28;20524;-54
2023/12/01 10:09:10;;;;;;;112.53;7.43;;;;;;;2.13;100.00;96504.97;5009056;28;20029;-54
2023/12/01 10:11:36;;;;;;;39.08;3.75;;;;;;;1.90;100.00;96490.25;5010545;28;20099;-54
2023/12/01 10:14:06;;;;;;;102.78;7.10;;;;;;;2.04;100.00;96489.53;5009319;28;20017;-54
2023/12/01 10:16:38;;;;;;;43.53;4.28;;;;;;;1.90;100.00;96495.41;5011593;28;20036;-54
2023/12/01 10:19:05;;;;;;;105.30;6.25;;;;;;;2.05;100.00;96496.38;5008315;28;20033;-54
2023/12/01 10:21:48;;;;;;;33.60;3.78;;;;;;;2.06;100.00;96498.94;5009508;28;20037;-54
2023/12/01 10:24:21;;;;;;;162.13;15.55;;;;;;;2.07;100.00;96477.56;5011853;28;20025;-54
2023/12/01 10:26:49;;;;;;;81.03;13.40;;;;;;;2.02;100.00;96488.66;5007620;28;20037;-56
2023/12/01 10:29:31;;;;;;;204.52;23.63;;;;;;;2.16;100.00;96492.13;5008315;28;20091;-54
2023/12/01 10:32:11;;;;;;;37.13;6.90;;;;;;;2.85;100.00;96477.91;5010722;28;20041;-54
2023/12/01 10:34:37;;;;;;;80.65;8.50;;;;;;;3.43;100.00;96475.44;5007660;28;20105;-55
2023/12/01 10:37:03;;;;;;;68.07;9.32;;;;;;;3.64;100.00;96486.59;5008389;28;20038;-55
2023/12/01 10:39:29;;;;;;;56.88;9.13;;;;;;;3.90;100.00;96490.88;5009612;28;20349;-55
2023/12/01 10:41:58;;;;;;;81.60;12.23;;;;;;;3.84;100.00;96483.13;5008593;28;20037;-55
2023/12/01 10:44:26;;;;;;;74.03;12.68;;;;;;;4.10;100.00;96498.53;5009585;28;20401;-55
2023/12/01 10:46:53;;;;;;;78.70;12.30;;;;;;;4.06;100.00;96508.84;5008761;28;20045;-55
2023/12/01 10:49:19;;;;;;;136.02;16.45;;;;;;;3.88;100.00;96500.28;5009041;28;20041;-54
2023/12/01 10:51:46;;;;;;;78.30;13.48;;;;;;;3.95;100.00;96471.13;5009941;28;20045;-55
2023/12/01 10:54:13;;;;;;;110.80;13.48;;;;;;;3.95;100.00;96471.13;5008287;28;20033;-54
2023/12/01 10:56:44;;;;;;;64.10;11.50;;;;;;;3.93;100.00;96472.84;5010042;28;20125;-55
2023/12/01 10:59:15;;;;;;;118.55;14.10;;;;;;;3.77;100.00;96478.00;5010521;28;20496;-55
2023/12/01 11:01:41;;;;;;;76.72;11.88;;;;;;;3.98;100.00;96491.72;5007632;28;20363;-56
2023/12/01 11:04:09;;;;;;;110.97;13.23;;;;;;;4.15;100.00;96493.38;5008962;28;20026;-54
2023/12/01 11:06:52;;;;;;;79.15;11.85;;;;;;;4.17;100.00;96486.53;5007982;28;20054;-54
2023/12/01 11:09:50;;;;;;;117.68;12.23;;;;;;;3.60;100.00;96478.00;5009506;28;20366;-54
2023/12/01 11:12:40;;;;;;;103.72;12.00;;;;;;;3.70;100.00;96480.56;4991383;28;20117;-54